Dolph, Arkansas
Current Conditions -  °F | °C
As of 2:08 PM on Sunday 23 Nov 2014 (Local Time) from KBPK Reporting Station
Overcast Overcast  
Wind Chill: 57°   Ceiling: 500
Heat Index: 57°   Visibility: 10mi
Dew Point: 57°   Wind: 3mph
Humidity: 100%   Direction: 120°ESE
Pressure: 29.34"   Gusts: NA
Location:  36.23°N, 92.11°W
Report Text: KBPK 232008Z AUTO 12003KT 10SM OVC005 14/14 A2934 RMK AO2 CIG 004V008 T01390139
Loading
Personal Weather Stations






























Interactive Weather Map New forecast layout! Learn more

10-Day Weather Forecast

Advertisements
Track Severe Weather on mobile